sensor_id;sensor_type;location;lat;lon;timestamp;P1;durP1;ratioP1;P2;durP2;ratioP2
15218;SDS011;15623;53.986;11.676;2023-04-15T00:01:08;278.53;;;40.57;;
15218;SDS011;15623;53.986;11.676;2023-04-15T00:03:42;541.07;;;43.57;;
15218;SDS011;15623;53.986;11.676;2023-04-15T00:06:18;381.60;;;40.93;;
15218;SDS011;15623;53.986;11.676;2023-04-15T00:08:56;318.73;;;37.20;;
15218;SDS011;15623;53.986;11.676;2023-04-15T00:11:23;420.33;;;37.67;;
15218;SDS011;15623;53.986;11.676;2023-04-15T00:13:51;441.20;;;41.20;;
15218;SDS011;15623;53.986;11.676;2023-04-15T00:19:19;331.97;;;36.53;;
15218;SDS011;15623;53.986;11.676;2023-04-15T00:21:56;344.40;;;39.87;;
15218;SDS011;15623;53.986;11.676;2023-04-15T00:24:32;246.33;;;34.80;;
15218;SDS011;15623;53.986;11.676;2023-04-15T00:26:59;178.67;;;34.97;;
15218;SDS011;15623;53.986;11.676;2023-04-15T00:29:27;142.30;;;34.07;;
15218;SDS011;15623;53.986;11.676;2023-04-15T00:31:55;172.40;;;34.37;;
15218;SDS011;15623;53.986;11.676;2023-04-15T00:34:29;202.63;;;34.27;;
15218;SDS011;15623;53.986;11.676;2023-04-15T00:36:58;227.23;;;35.73;;
15218;SDS011;15623;53.986;11.676;2023-04-15T00:42:31;480.80;;;39.00;;
15218;SDS011;15623;53.986;11.676;2023-04-15T00:45:00;541.77;;;40.53;;
15218;SDS011;15623;53.986;11.676;2023-04-15T00:47:34;224.63;;;34.27;;
15218;SDS011;15623;53.986;11.676;2023-04-15T00:50:04;657.47;;;41.80;;
15218;SDS011;15623;53.986;11.676;2023-04-15T00:52:34;290.13;;;35.07;;
15218;SDS011;15623;53.986;11.676;2023-04-15T00:55:03;225.07;;;35.03;;
15218;SDS011;15623;53.986;11.676;2023-04-15T00:57:30;198.43;;;34.70;;
15218;SDS011;15623;53.986;11.676;2023-04-15T00:59:57;302.30;;;36.83;;
15218;SDS011;15623;53.986;11.676;2023-04-15T01:02:29;614.60;;;41.27;;
15218;SDS011;15623;53.986;11.676;2023-04-15T01:04:59;330.83;;;38.43;;
15218;SDS011;15623;53.986;11.676;2023-04-15T01:07:32;220.83;;;36.43;;
15218;SDS011;15623;53.986;11.676;2023-04-15T01:10:01;451.63;;;40.70;;
15218;SDS011;15623;53.986;11.676;2023-04-15T01:12:31;170.17;;;34.63;;
15218;SDS011;15623;53.986;11.676;2023-04-15T01:15:05;199.13;;;34.17;;
15218;SDS011;15623;53.986;11.676;2023-04-15T01:17:35;173.73;;;34.30;;
15218;SDS011;15623;53.986;11.676;2023-04-15T01:20:03;157.20;;;32.57;;
15218;SDS011;15623;53.986;11.676;2023-04-15T01:22:36;331.63;;;37.50;;
15218;SDS011;15623;53.986;11.676;2023-04-15T01:25:06;261.70;;;34.87;;
15218;SDS011;15623;53.986;11.676;2023-04-15T01:27:44;264.60;;;35.77;;
15218;SDS011;15623;53.986;11.676;2023-04-15T01:30:20;608.17;;;41.97;;
15218;SDS011;15623;53.986;11.676;2023-04-15T01:32:57;251.63;;;36.50;;
15218;SDS011;15623;53.986;11.676;2023-04-15T01:35:32;169.53;;;34.03;;
15218;SDS011;15623;53.986;11.676;2023-04-15T01:38:05;205.87;;;34.93;;
15218;SDS011;15623;53.986;11.676;2023-04-15T01:40:45;121.10;;;31.80;;
15218;SDS011;15623;53.986;11.676;2023-04-15T01:43:17;285.97;;;35.47;;
15218;SDS011;15623;53.986;11.676;2023-04-15T01:45:46;228.63;;;33.37;;
15218;SDS011;15623;53.986;11.676;2023-04-15T01:50:55;399.93;;;35.63;;
15218;SDS011;15623;53.986;11.676;2023-04-15T01:53:24;374.53;;;36.07;;
15218;SDS011;15623;53.986;11.676;2023-04-15T01:55:55;235.63;;;34.93;;
15218;SDS011;15623;53.986;11.676;2023-04-15T01:58:34;285.03;;;35.87;;
15218;SDS011;15623;53.986;11.676;2023-04-15T02:01:01;394.00;;;37.67;;
15218;SDS011;15623;53.986;11.676;2023-04-15T02:03:32;120.57;;;33.33;;
15218;SDS011;15623;53.986;11.676;2023-04-15T02:06:00;146.63;;;33.33;;
15218;SDS011;15623;53.986;11.676;2023-04-15T02:08:28;296.43;;;35.17;;
15218;SDS011;15623;53.986;11.676;2023-04-15T02:10:59;391.60;;;37.43;;
15218;SDS011;15623;53.986;11.676;2023-04-15T02:16:02;314.80;;;36.87;;
15218;SDS011;15623;53.986;11.676;2023-04-15T02:18:32;207.57;;;33.47;;
15218;SDS011;15623;53.986;11.676;2023-04-15T02:21:11;312.43;;;38.23;;
15218;SDS011;15623;53.986;11.676;2023-04-15T02:26:24;238.20;;;36.17;;
15218;SDS011;15623;53.986;11.676;2023-04-15T02:28:58;332.73;;;38.67;;
15218;SDS011;15623;53.986;11.676;2023-04-15T02:31:27;251.73;;;38.23;;
15218;SDS011;15623;53.986;11.676;2023-04-15T02:33:55;481.23;;;42.70;;
15218;SDS011;15623;53.986;11.676;2023-04-15T02:36:24;356.87;;;41.67;;
15218;SDS011;15623;53.986;11.676;2023-04-15T02:38:52;134.33;;;36.53;;
15218;SDS011;15623;53.986;11.676;2023-04-15T02:44:07;281.60;;;39.13;;
15218;SDS011;15623;53.986;11.676;2023-04-15T02:46:43;172.17;;;38.27;;
15218;SDS011;15623;53.986;11.676;2023-04-15T02:49:13;384.07;;;43.17;;
15218;SDS011;15623;53.986;11.676;2023-04-15T02:51:41;297.63;;;41.27;;
15218;SDS011;15623;53.986;11.676;2023-04-15T02:56:58;315.83;;;40.03;;
15218;SDS011;15623;53.986;11.676;2023-04-15T02:59:29;105.00;;;36.50;;
15218;SDS011;15623;53.986;11.676;2023-04-15T03:02:02;327.03;;;41.03;;
15218;SDS011;15623;53.986;11.676;2023-04-15T03:04:38;288.23;;;39.73;;
15218;SDS011;15623;53.986;11.676;2023-04-15T03:07:17;175.43;;;37.20;;
15218;SDS011;15623;53.986;11.676;2023-04-15T03:12:15;173.50;;;38.70;;
15218;SDS011;15623;53.986;11.676;2023-04-15T03:14:49;128.80;;;36.93;;
15218;SDS011;15623;53.986;11.676;2023-04-15T03:17:20;98.13;;;33.97;;
15218;SDS011;15623;53.986;11.676;2023-04-15T03:19:48;276.30;;;39.40;;
15218;SDS011;15623;53.986;11.676;2023-04-15T03:22:18;326.50;;;40.90;;
15218;SDS011;15623;53.986;11.676;2023-04-15T03:24:51;99.53;;;36.23;;
15218;SDS011;15623;53.986;11.676;2023-04-15T03:27:31;127.67;;;38.53;;
15218;SDS011;15623;53.986;11.676;2023-04-15T03:29:59;180.27;;;38.00;;
15218;SDS011;15623;53.986;11.676;2023-04-15T03:32:38;316.80;;;40.83;;
15218;SDS011;15623;53.986;11.676;2023-04-15T03:35:11;334.73;;;42.10;;
15218;SDS011;15623;53.986;11.676;2023-04-15T03:37:43;139.07;;;38.23;;
15218;SDS011;15623;53.986;11.676;2023-04-15T03:40:10;177.83;;;37.13;;
15218;SDS011;15623;53.986;11.676;2023-04-15T03:42:52;289.60;;;41.23;;
15218;SDS011;15623;53.986;11.676;2023-04-15T03:45:27;169.00;;;39.30;;
15218;SDS011;15623;53.986;11.676;2023-04-15T03:50:47;266.90;;;39.23;;
15218;SDS011;15623;53.986;11.676;2023-04-15T03:53:14;127.27;;;36.43;;
15218;SDS011;15623;53.986;11.676;2023-04-15T03:55:43;251.20;;;39.30;;
15218;SDS011;15623;53.986;11.676;2023-04-15T03:58:17;279.63;;;39.67;;
15218;SDS011;15623;53.986;11.676;2023-04-15T04:00:45;139.97;;;37.93;;
15218;SDS011;15623;53.986;11.676;2023-04-15T04:03:16;115.97;;;35.40;;
15218;SDS011;15623;53.986;11.676;2023-04-15T04:05:45;332.77;;;43.10;;
15218;SDS011;15623;53.986;11.676;2023-04-15T04:08:17;317.30;;;40.30;;
15218;SDS011;15623;53.986;11.676;2023-04-15T04:10:47;215.73;;;39.70;;
15218;SDS011;15623;53.986;11.676;2023-04-15T04:13:17;144.77;;;36.23;;
15218;SDS011;15623;53.986;11.676;2023-04-15T04:21:01;600.20;;;47.80;;
15218;SDS011;15623;53.986;11.676;2023-04-15T04:23:29;214.73;;;40.97;;
15218;SDS011;15623;53.986;11.676;2023-04-15T04:25:57;218.57;;;43.03;;
15218;SDS011;15623;53.986;11.676;2023-04-15T04:28:26;490.73;;;49.97;;
15218;SDS011;15623;53.986;11.676;2023-04-15T04:30:59;202.97;;;42.00;;
15218;SDS011;15623;53.986;11.676;2023-04-15T04:33:31;297.77;;;45.20;;
15218;SDS011;15623;53.986;11.676;2023-04-15T04:36:04;155.73;;;43.83;;
15218;SDS011;15623;53.986;11.676;2023-04-15T04:38:34;334.73;;;46.33;;
15218;SDS011;15623;53.986;11.676;2023-04-15T04:41:07;149.33;;;43.70;;
15218;SDS011;15623;53.986;11.676;2023-04-15T04:43:35;229.40;;;45.90;;
15218;SDS011;15623;53.986;11.676;2023-04-15T04:46:04;150.30;;;44.83;;
15218;SDS011;15623;53.986;11.676;2023-04-15T04:48:32;300.23;;;47.00;;
15218;SDS011;15623;53.986;11.676;2023-04-15T04:51:01;254.73;;;46.10;;
15218;SDS011;15623;53.986;11.676;2023-04-15T04:53:34;289.30;;;48.23;;
15218;SDS011;15623;53.986;11.676;2023-04-15T04:56:07;298.53;;;48.73;;
15218;SDS011;15623;53.986;11.676;2023-04-15T04:58:36;382.77;;;50.97;;
15218;SDS011;15623;53.986;11.676;2023-04-15T05:01:03;485.67;;;54.50;;
15218;SDS011;15623;53.986;11.676;2023-04-15T05:03:32;686.57;;;64.67;;
15218;SDS011;15623;53.986;11.676;2023-04-15T05:06:06;338.27;;;52.03;;
15218;SDS011;15623;53.986;11.676;2023-04-15T05:08:39;722.33;;;64.33;;
15218;SDS011;15623;53.986;11.676;2023-04-15T05:11:09;236.23;;;50.63;;
15218;SDS011;15623;53.986;11.676;2023-04-15T05:13:39;342.47;;;52.07;;
15218;SDS011;15623;53.986;11.676;2023-04-15T05:16:06;198.97;;;50.10;;
15218;SDS011;15623;53.986;11.676;2023-04-15T05:18:35;285.10;;;52.77;;
15218;SDS011;15623;53.986;11.676;2023-04-15T05:26:37;193.70;;;50.70;;
15218;SDS011;15623;53.986;11.676;2023-04-15T05:29:06;152.03;;;52.00;;
15218;SDS011;15623;53.986;11.676;2023-04-15T05:31:33;106.67;;;48.27;;
15218;SDS011;15623;53.986;11.676;2023-04-15T05:34:02;127.60;;;51.50;;
15218;SDS011;15623;53.986;11.676;2023-04-15T05:36:29;125.17;;;49.47;;
15218;SDS011;15623;53.986;11.676;2023-04-15T05:38:57;111.40;;;50.43;;
15218;SDS011;15623;53.986;11.676;2023-04-15T05:41:25;105.77;;;48.43;;
15218;SDS011;15623;53.986;11.676;2023-04-15T05:43:55;105.80;;;48.33;;
15218;SDS011;15623;53.986;11.676;2023-04-15T05:49:04;98.30;;;47.00;;
15218;SDS011;15623;53.986;11.676;2023-04-15T05:51:32;97.67;;;46.67;;
15218;SDS011;15623;53.986;11.676;2023-04-15T05:54:01;87.03;;;46.10;;
15218;SDS011;15623;53.986;11.676;2023-04-15T05:56:34;85.50;;;45.10;;
15218;SDS011;15623;53.986;11.676;2023-04-15T05:59:06;84.67;;;44.70;;
15218;SDS011;15623;53.986;11.676;2023-04-15T06:01:34;79.40;;;43.43;;
15218;SDS011;15623;53.986;11.676;2023-04-15T06:04:10;74.67;;;42.47;;
15218;SDS011;15623;53.986;11.676;2023-04-15T06:06:38;73.33;;;42.13;;
15218;SDS011;15623;53.986;11.676;2023-04-15T06:11:42;65.00;;;39.57;;
15218;SDS011;15623;53.986;11.676;2023-04-15T06:14:10;64.00;;;38.03;;
15218;SDS011;15623;53.986;11.676;2023-04-15T06:16:40;63.17;;;37.70;;
15218;SDS011;15623;53.986;11.676;2023-04-15T06:19:07;58.07;;;35.13;;
15218;SDS011;15623;53.986;11.676;2023-04-15T06:21:41;57.67;;;37.60;;
15218;SDS011;15623;53.986;11.676;2023-04-15T06:24:09;59.20;;;37.90;;
15218;SDS011;15623;53.986;11.676;2023-04-15T06:26:37;62.27;;;38.30;;
15218;SDS011;15623;53.986;11.676;2023-04-15T06:29:22;57.27;;;35.73;;
15218;SDS011;15623;53.986;11.676;2023-04-15T06:31:49;51.10;;;33.70;;
15218;SDS011;15623;53.986;11.676;2023-04-15T06:34:16;52.17;;;34.07;;
15218;SDS011;15623;53.986;11.676;2023-04-15T06:36:44;46.80;;;32.67;;
15218;SDS011;15623;53.986;11.676;2023-04-15T06:39:12;43.97;;;30.17;;
15218;SDS011;15623;53.986;11.676;2023-04-15T06:41:45;41.10;;;29.57;;
15218;SDS011;15623;53.986;11.676;2023-04-15T06:44:14;38.13;;;27.87;;
15218;SDS011;15623;53.986;11.676;2023-04-15T06:46:46;33.60;;;26.00;;
15218;SDS011;15623;53.986;11.676;2023-04-15T06:49:25;34.57;;;24.77;;
15218;SDS011;15623;53.986;11.676;2023-04-15T06:51:54;29.40;;;23.73;;
15218;SDS011;15623;53.986;11.676;2023-04-15T06:54:22;28.10;;;22.43;;
15218;SDS011;15623;53.986;11.676;2023-04-15T06:56:49;23.90;;;21.30;;
15218;SDS011;15623;53.986;11.676;2023-04-15T06:59:17;22.77;;;20.13;;
15218;SDS011;15623;53.986;11.676;2023-04-15T07:01:53;20.63;;;18.27;;
15218;SDS011;15623;53.986;11.676;2023-04-15T07:04:28;22.63;;;19.00;;
15218;SDS011;15623;53.986;11.676;2023-04-15T07:06:56;20.03;;;17.33;;
15218;SDS011;15623;53.986;11.676;2023-04-15T07:09:32;21.67;;;17.50;;
15218;SDS011;15623;53.986;11.676;2023-04-15T07:12:11;20.23;;;18.08;;
15218;SDS011;15623;53.986;11.676;2023-04-15T07:14:46;19.98;;;16.90;;
15218;SDS011;15623;53.986;11.676;2023-04-15T07:17:16;17.92;;;16.20;;
15218;SDS011;15623;53.986;11.676;2023-04-15T07:19:44;18.10;;;16.23;;
15218;SDS011;15623;53.986;11.676;2023-04-15T07:22:12;18.17;;;16.38;;
15218;SDS011;15623;53.986;11.676;2023-04-15T07:24:49;16.80;;;15.20;;
15218;SDS011;15623;53.986;11.676;2023-04-15T07:27:17;16.33;;;14.60;;
15218;SDS011;15623;53.986;11.676;2023-04-15T07:29:47;16.85;;;14.88;;
15218;SDS011;15623;53.986;11.676;2023-04-15T07:32:32;20.67;;;15.45;;
15218;SDS011;15623;53.986;11.676;2023-04-15T07:35:01;17.65;;;14.43;;
15218;SDS011;15623;53.986;11.676;2023-04-15T07:37:29;15.13;;;13.50;;
15218;SDS011;15623;53.986;11.676;2023-04-15T07:42:34;14.68;;;13.23;;
15218;SDS011;15623;53.986;11.676;2023-04-15T07:45:04;15.07;;;13.68;;
15218;SDS011;15623;53.986;11.676;2023-04-15T07:47:38;17.83;;;13.43;;
15218;SDS011;15623;53.986;11.676;2023-04-15T07:50:18;15.82;;;14.30;;
15218;SDS011;15623;53.986;11.676;2023-04-15T07:52:53;17.35;;;13.85;;
15218;SDS011;15623;53.986;11.676;2023-04-15T07:55:21;15.13;;;13.63;;
15218;SDS011;15623;53.986;11.676;2023-04-15T07:58:00;17.15;;;13.95;;
15218;SDS011;15623;53.986;11.676;2023-04-15T08:00:27;15.80;;;13.70;;
15218;SDS011;15623;53.986;11.676;2023-04-15T08:05:46;15.10;;;13.60;;
15218;SDS011;15623;53.986;11.676;2023-04-15T08:08:13;14.88;;;13.25;;
15218;SDS011;15623;53.986;11.676;2023-04-15T08:10:54;13.93;;;12.65;;
15218;SDS011;15623;53.986;11.676;2023-04-15T08:18:51;13.50;;;12.35;;
15218;SDS011;15623;53.986;11.676;2023-04-15T08:21:20;13.50;;;12.30;;
15218;SDS011;15623;53.986;11.676;2023-04-15T08:23:54;14.27;;;12.95;;
15218;SDS011;15623;53.986;11.676;2023-04-15T08:29:01;15.95;;;13.85;;
15218;SDS011;15623;53.986;11.676;2023-04-15T08:31:32;15.02;;;13.27;;
15218;SDS011;15623;53.986;11.676;2023-04-15T08:36:48;13.18;;;11.98;;
15218;SDS011;15623;53.986;11.676;2023-04-15T08:44:32;13.40;;;12.20;;
15218;SDS011;15623;53.986;11.676;2023-04-15T08:47:02;14.10;;;12.88;;
15218;SDS011;15623;53.986;11.676;2023-04-15T08:49:32;13.57;;;12.38;;
15218;SDS011;15623;53.986;11.676;2023-04-15T08:52:05;13.82;;;12.55;;
15218;SDS011;15623;53.986;11.676;2023-04-15T08:54:33;13.13;;;11.82;;
15218;SDS011;15623;53.986;11.676;2023-04-15T08:57:00;14.90;;;13.30;;
15218;SDS011;15623;53.986;11.676;2023-04-15T08:59:28;13.00;;;11.63;;
15218;SDS011;15623;53.986;11.676;2023-04-15T09:01:58;12.48;;;11.38;;
15218;SDS011;15623;53.986;11.676;2023-04-15T09:04:28;12.25;;;11.05;;
15218;SDS011;15623;53.986;11.676;2023-04-15T09:09:46;12.63;;;11.43;;
15218;SDS011;15623;53.986;11.676;2023-04-15T09:12:19;11.70;;;10.80;;
15218;SDS011;15623;53.986;11.676;2023-04-15T09:14:59;12.93;;;11.82;;
15218;SDS011;15623;53.986;11.676;2023-04-15T09:17:36;11.57;;;10.68;;
15218;SDS011;15623;53.986;11.676;2023-04-15T09:20:16;13.20;;;12.00;;
15218;SDS011;15623;53.986;11.676;2023-04-15T09:22:51;12.73;;;11.52;;
15218;SDS011;15623;53.986;11.676;2023-04-15T09:25:28;11.35;;;10.55;;
15218;SDS011;15623;53.986;11.676;2023-04-15T09:27:58;12.18;;;11.27;;
15218;SDS011;15623;53.986;11.676;2023-04-15T09:30:27;12.82;;;11.85;;
15218;SDS011;15623;53.986;11.676;2023-04-15T09:32:55;11.75;;;10.80;;
15218;SDS011;15623;53.986;11.676;2023-04-15T09:35:25;13.43;;;12.32;;
15218;SDS011;15623;53.986;11.676;2023-04-15T09:38:07;14.88;;;13.57;;
15218;SDS011;15623;53.986;11.676;2023-04-15T09:40:43;15.82;;;14.15;;
15218;SDS011;15623;53.986;11.676;2023-04-15T09:45:46;13.95;;;12.75;;
15218;SDS011;15623;53.986;11.676;2023-04-15T09:48:23;15.00;;;13.57;;
15218;SDS011;15623;53.986;11.676;2023-04-15T09:51:00;16.77;;;15.07;;
15218;SDS011;15623;53.986;11.676;2023-04-15T09:53:36;16.83;;;15.02;;
15218;SDS011;15623;53.986;11.676;2023-04-15T09:56:07;16.88;;;15.27;;
15218;SDS011;15623;53.986;11.676;2023-04-15T09:58:55;18.67;;;16.23;;
15218;SDS011;15623;53.986;11.676;2023-04-15T10:01:22;19.80;;;17.70;;
15218;SDS011;15623;53.986;11.676;2023-04-15T10:06:41;18.73;;;16.48;;
15218;SDS011;15623;53.986;11.676;2023-04-15T10:12:17;17.85;;;15.95;;
15218;SDS011;15623;53.986;11.676;2023-04-15T10:14:47;18.05;;;16.35;;
15218;SDS011;15623;53.986;11.676;2023-04-15T10:22:50;17.67;;;15.98;;
15218;SDS011;15623;53.986;11.676;2023-04-15T10:25:28;17.23;;;15.55;;
15218;SDS011;15623;53.986;11.676;2023-04-15T10:28:05;17.80;;;15.98;;
15218;SDS011;15623;53.986;11.676;2023-04-15T10:30:39;19.48;;;17.00;;
15218;SDS011;15623;53.986;11.676;2023-04-15T10:33:07;19.90;;;17.80;;
15218;SDS011;15623;53.986;11.676;2023-04-15T10:35:55;18.92;;;17.08;;
15218;SDS011;15623;53.986;11.676;2023-04-15T10:38:36;20.58;;;18.42;;
15218;SDS011;15623;53.986;11.676;2023-04-15T10:41:14;21.00;;;18.83;;
15218;SDS011;15623;53.986;11.676;2023-04-15T10:46:38;23.90;;;20.13;;
15218;SDS011;15623;53.986;11.676;2023-04-15T10:49:12;22.40;;;20.10;;
15218;SDS011;15623;53.986;11.676;2023-04-15T10:54:31;24.20;;;20.38;;
15218;SDS011;15623;53.986;11.676;2023-04-15T11:11:11;22.13;;;19.63;;
15218;SDS011;15623;53.986;11.676;2023-04-15T11:13:46;20.88;;;18.88;;
15218;SDS011;15623;53.986;11.676;2023-04-15T11:16:22;22.67;;;20.08;;
15218;SDS011;15623;53.986;11.676;2023-04-15T11:18:54;21.10;;;18.77;;
15218;SDS011;15623;53.986;11.676;2023-04-15T11:21:23;21.58;;;19.27;;
15218;SDS011;15623;53.986;11.676;2023-04-15T11:23:55;19.67;;;17.80;;
15218;SDS011;15623;53.986;11.676;2023-04-15T11:26:26;19.13;;;17.23;;
15218;SDS011;15623;53.986;11.676;2023-04-15T11:29:00;19.45;;;17.65;;
15218;SDS011;15623;53.986;11.676;2023-04-15T11:31:28;20.27;;;18.25;;
15218;SDS011;15623;53.986;11.676;2023-04-15T11:33:58;20.45;;;18.42;;
15218;SDS011;15623;53.986;11.676;2023-04-15T11:36:28;21.65;;;19.45;;
15218;SDS011;15623;53.986;11.676;2023-04-15T11:38:57;22.00;;;19.75;;
15218;SDS011;15623;53.986;11.676;2023-04-15T11:47:57;23.90;;;21.17;;
15218;SDS011;15623;53.986;11.676;2023-04-15T11:50:52;23.77;;;20.90;;
15218;SDS011;15623;53.986;11.676;2023-04-15T11:53:22;22.00;;;19.58;;
15218;SDS011;15623;53.986;11.676;2023-04-15T11:55:51;22.33;;;19.90;;
15218;SDS011;15623;53.986;11.676;2023-04-15T11:58:21;24.20;;;20.17;;
15218;SDS011;15623;53.986;11.676;2023-04-15T12:01:05;20.65;;;18.65;;
15218;SDS011;15623;53.986;11.676;2023-04-15T12:03:47;20.25;;;18.10;;
15218;SDS011;15623;53.986;11.676;2023-04-15T12:06:34;18.02;;;16.30;;
15218;SDS011;15623;53.986;11.676;2023-04-15T12:09:12;18.35;;;16.52;;
15218;SDS011;15623;53.986;11.676;2023-04-15T12:14:30;19.58;;;17.52;;
15218;SDS011;15623;53.986;11.676;2023-04-15T12:17:01;19.38;;;17.38;;
15218;SDS011;15623;53.986;11.676;2023-04-15T12:19:54;19.10;;;17.25;;
15218;SDS011;15623;53.986;11.676;2023-04-15T12:22:26;16.85;;;15.13;;
15218;SDS011;15623;53.986;11.676;2023-04-15T12:24:55;17.45;;;15.82;;
15218;SDS011;15623;53.986;11.676;2023-04-15T12:27:27;17.35;;;15.65;;
15218;SDS011;15623;53.986;11.676;2023-04-15T12:30:11;17.45;;;15.82;;
15218;SDS011;15623;53.986;11.676;2023-04-15T12:32:42;15.40;;;13.90;;
15218;SDS011;15623;53.986;11.676;2023-04-15T12:35:18;17.20;;;15.40;;
15218;SDS011;15623;53.986;11.676;2023-04-15T12:37:58;18.20;;;16.40;;
15218;SDS011;15623;53.986;11.676;2023-04-15T12:43:23;15.75;;;14.35;;
15218;SDS011;15623;53.986;11.676;2023-04-15T12:46:05;15.75;;;14.25;;
15218;SDS011;15623;53.986;11.676;2023-04-15T12:48:42;17.95;;;16.10;;
15218;SDS011;15623;53.986;11.676;2023-04-15T12:51:21;16.55;;;15.02;;
15218;SDS011;15623;53.986;11.676;2023-04-15T12:53:57;17.35;;;15.65;;
15218;SDS011;15623;53.986;11.676;2023-04-15T12:56:35;17.42;;;15.77;;
15218;SDS011;15623;53.986;11.676;2023-04-15T13:04:35;18.90;;;16.33;;
15218;SDS011;15623;53.986;11.676;2023-04-15T13:07:08;17.77;;;16.00;;
15218;SDS011;15623;53.986;11.676;2023-04-15T13:09:39;18.98;;;17.08;;
15218;SDS011;15623;53.986;11.676;2023-04-15T13:12:27;18.90;;;16.90;;
15218;SDS011;15623;53.986;11.676;2023-04-15T13:17:35;19.08;;;17.05;;
15218;SDS011;15623;53.986;11.676;2023-04-15T13:20:10;18.75;;;16.85;;
15218;SDS011;15623;53.986;11.676;2023-04-15T13:25:30;23.55;;;19.83;;
15218;SDS011;15623;53.986;11.676;2023-04-15T13:28:14;23.17;;;20.45;;
15218;SDS011;15623;53.986;11.676;2023-04-15T13:30:44;24.75;;;20.60;;
15218;SDS011;15623;53.986;11.676;2023-04-15T13:33:13;24.13;;;20.65;;
15218;SDS011;15623;53.986;11.676;2023-04-15T13:35:46;25.55;;;20.67;;
15218;SDS011;15623;53.986;11.676;2023-04-15T13:38:22;25.60;;;20.15;;
15218;SDS011;15623;53.986;11.676;2023-04-15T13:40:51;23.88;;;19.92;;
15218;SDS011;15623;53.986;11.676;2023-04-15T13:43:18;25.52;;;21.30;;
15218;SDS011;15623;53.986;11.676;2023-04-15T13:45:48;23.27;;;20.83;;
15218;SDS011;15623;53.986;11.676;2023-04-15T13:48:16;24.20;;;20.83;;
15218;SDS011;15623;53.986;11.676;2023-04-15T13:50:52;25.02;;;21.75;;
15218;SDS011;15623;53.986;11.676;2023-04-15T13:53:23;25.35;;;21.58;;
15218;SDS011;15623;53.986;11.676;2023-04-15T13:56:15;24.27;;;20.63;;
15218;SDS011;15623;53.986;11.676;2023-04-15T13:58:44;26.02;;;21.52;;
15218;SDS011;15623;53.986;11.676;2023-04-15T14:03:56;26.27;;;20.98;;
15218;SDS011;15623;53.986;11.676;2023-04-15T14:12:32;24.20;;;20.95;;
15218;SDS011;15623;53.986;11.676;2023-04-15T14:15:05;24.33;;;20.48;;
15218;SDS011;15623;53.986;11.676;2023-04-15T14:20:32;24.20;;;20.27;;
15218;SDS011;15623;53.986;11.676;2023-04-15T14:23:25;25.05;;;21.08;;
15218;SDS011;15623;53.986;11.676;2023-04-15T14:26:05;25.67;;;20.97;;
15218;SDS011;15623;53.986;11.676;2023-04-15T14:28:34;25.47;;;21.53;;
15218;SDS011;15623;53.986;11.676;2023-04-15T14:31:02;28.52;;;21.83;;
15218;SDS011;15623;53.986;11.676;2023-04-15T14:33:42;28.20;;;21.10;;
15218;SDS011;15623;53.986;11.676;2023-04-15T14:36:14;28.23;;;22.00;;
15218;SDS011;15623;53.986;11.676;2023-04-15T14:38:52;27.03;;;21.97;;
15218;SDS011;15623;53.986;11.676;2023-04-15T14:41:36;25.93;;;21.77;;
15218;SDS011;15623;53.986;11.676;2023-04-15T14:44:06;28.53;;;22.17;;
15218;SDS011;15623;53.986;11.676;2023-04-15T14:49:20;28.03;;;22.73;;
15218;SDS011;15623;53.986;11.676;2023-04-15T14:51:50;31.90;;;24.03;;
15218;SDS011;15623;53.986;11.676;2023-04-15T14:54:24;31.80;;;22.77;;
15218;SDS011;15623;53.986;11.676;2023-04-15T14:56:51;30.50;;;22.83;;
15218;SDS011;15623;53.986;11.676;2023-04-15T15:01:56;32.57;;;22.30;;
15218;SDS011;15623;53.986;11.676;2023-04-15T15:04:25;30.13;;;23.10;;
15218;SDS011;15623;53.986;11.676;2023-04-15T15:09:31;32.90;;;23.97;;
15218;SDS011;15623;53.986;11.676;2023-04-15T15:12:02;29.23;;;22.70;;
15218;SDS011;15623;53.986;11.676;2023-04-15T15:14:32;32.90;;;24.23;;
15218;SDS011;15623;53.986;11.676;2023-04-15T15:17:10;36.33;;;24.40;;
15218;SDS011;15623;53.986;11.676;2023-04-15T15:19:37;33.13;;;23.40;;
15218;SDS011;15623;53.986;11.676;2023-04-15T15:22:11;33.37;;;22.60;;
15218;SDS011;15623;53.986;11.676;2023-04-15T15:24:40;34.93;;;24.33;;
15218;SDS011;15623;53.986;11.676;2023-04-15T15:27:07;30.80;;;23.27;;
15218;SDS011;15623;53.986;11.676;2023-04-15T15:29:36;34.63;;;23.47;;
15218;SDS011;15623;53.986;11.676;2023-04-15T15:32:17;31.30;;;22.30;;
15218;SDS011;15623;53.986;11.676;2023-04-15T15:34:52;34.10;;;23.07;;
15218;SDS011;15623;53.986;11.676;2023-04-15T15:37:26;28.60;;;22.63;;
15218;SDS011;15623;53.986;11.676;2023-04-15T15:39:54;34.83;;;23.57;;
15218;SDS011;15623;53.986;11.676;2023-04-15T15:45:17;34.80;;;24.27;;
15218;SDS011;15623;53.986;11.676;2023-04-15T15:47:51;28.77;;;22.87;;
15218;SDS011;15623;53.986;11.676;2023-04-15T15:50:32;27.67;;;22.13;;
15218;SDS011;15623;53.986;11.676;2023-04-15T15:53:00;30.27;;;22.90;;
15218;SDS011;15623;53.986;11.676;2023-04-15T15:55:39;31.03;;;21.63;;
15218;SDS011;15623;53.986;11.676;2023-04-15T15:58:17;31.03;;;21.90;;
15218;SDS011;15623;53.986;11.676;2023-04-15T16:00:46;29.47;;;22.27;;
15218;SDS011;15623;53.986;11.676;2023-04-15T16:03:23;32.07;;;21.67;;
15218;SDS011;15623;53.986;11.676;2023-04-15T16:05:52;28.87;;;21.80;;
15218;SDS011;15623;53.986;11.676;2023-04-15T16:08:19;30.03;;;21.67;;
15218;SDS011;15623;53.986;11.676;2023-04-15T16:11:03;28.33;;;20.80;;
15218;SDS011;15623;53.986;11.676;2023-04-15T16:13:37;32.53;;;21.57;;
15218;SDS011;15623;53.986;11.676;2023-04-15T16:18:43;28.50;;;20.83;;
15218;SDS011;15623;53.986;11.676;2023-04-15T16:21:10;30.63;;;21.03;;
15218;SDS011;15623;53.986;11.676;2023-04-15T16:23:38;27.27;;;20.27;;
15218;SDS011;15623;53.986;11.676;2023-04-15T16:26:08;27.47;;;19.93;;
15218;SDS011;15623;53.986;11.676;2023-04-15T16:28:42;29.53;;;20.63;;
15218;SDS011;15623;53.986;11.676;2023-04-15T16:31:24;26.87;;;20.10;;
15218;SDS011;15623;53.986;11.676;2023-04-15T16:33:59;29.07;;;20.10;;
15218;SDS011;15623;53.986;11.676;2023-04-15T16:36:33;27.37;;;19.47;;
15218;SDS011;15623;53.986;11.676;2023-04-15T16:42:04;25.63;;;19.93;;
15218;SDS011;15623;53.986;11.676;2023-04-15T16:47:34;31.13;;;20.13;;
15218;SDS011;15623;53.986;11.676;2023-04-15T16:50:17;29.43;;;19.90;;
15218;SDS011;15623;53.986;11.676;2023-04-15T16:52:51;29.07;;;20.40;;
15218;SDS011;15623;53.986;11.676;2023-04-15T16:55:18;31.47;;;19.27;;
15218;SDS011;15623;53.986;11.676;2023-04-15T16:58:12;27.83;;;19.97;;
15218;SDS011;15623;53.986;11.676;2023-04-15T17:00:54;27.97;;;20.17;;
15218;SDS011;15623;53.986;11.676;2023-04-15T17:03:27;28.97;;;20.90;;
15218;SDS011;15623;53.986;11.676;2023-04-15T17:06:18;24.83;;;20.00;;